Time;durP1;ratioP1;P1;durP2;ratioP2;P2;SDS_P1;SDS_P2;PMS_P1;PMS_P2;Temp;Humidity;BMP_temperature;BMP_pressure;BME280_temperature;BME280_humidity;BME280_pressure;Samples;Min_cycle;Max_cycle;Signal;HPM_P1;HPM_P2
2021/06/25 00:00:20;;;;;;;;;;;;;;;15.19;100.00;96234.63;1045132;28;19909;-46
2021/06/25 00:00:50;;;;;;;;;;;;;;;15.20;100.00;96237.03;1045201;28;19991;-45
2021/06/25 00:01:20;;;;;;;;;;;;;;;15.18;100.00;96233.78;1045071;28;19917;-47
2021/06/25 00:01:52;;;;;;;;;;;;;;;15.20;100.00;96236.25;1045128;28;20418;-46
2021/06/25 00:02:22;;;;;;;;;;;;;;;15.28;100.00;96233.28;1044881;28;19916;-47
2021/06/25 00:02:52;;;;;;;;;;;;;;;15.21;100.00;96230.72;1044814;28;19974;-44
2021/06/25 00:03:22;;;;;;;;;;;;;;;15.21;100.00;96238.66;1044795;28;20282;-48
2021/06/25 00:03:53;;;;;;;;;;;;;;;15.21;100.00;96228.06;1044901;28;20273;-47
2021/06/25 00:04:23;;;;;;;;;;;;;;;15.18;100.00;96235.63;1044826;28;19947;-45
2021/06/25 00:04:53;;;;;;;;;;;;;;;15.17;100.00;96229.53;1045090;28;19909;-43
2021/06/25 00:05:24;;;;;;;;;;;;;;;15.16;100.00;96227.09;1044566;28;19908;-45
2021/06/25 00:05:54;;;;;;;;;;;;;;;15.16;100.00;96225.25;1044900;28;20307;-46
2021/06/25 00:06:24;;;;;;;;;;;;;;;15.16;100.00;96227.91;1040677;28;19908;-45
2021/06/25 00:06:55;;;;;;;;;;;;;;;15.13;100.00;96228.34;1040603;28;19995;-44
2021/06/25 00:07:25;;;;;;;;;;;;;;;15.14;100.00;96227.31;1044912;28;20257;-47
2021/06/25 00:07:55;;;;;;;;;;;;;;;15.11;100.00;96225.13;1044931;28;19963;-44
2021/06/25 00:08:25;;;;;;;;;;;;;;;15.10;100.00;96226.94;1045119;28;19909;-46
2021/06/25 00:08:56;;;;;;;;;;;;;;;15.09;100.00;96227.16;1044712;28;19908;-48
2021/06/25 00:09:26;;;;;;;;;;;;;;;15.08;100.00;96225.56;1044828;28;19913;-43
2021/06/25 00:09:56;;;;;;;;;;;;;;;15.05;100.00;96226.00;1044848;28;20420;-46
2021/06/25 00:10:27;;;;;;;;;;;;;;;15.03;100.00;96222.75;1044692;28;19909;-45
2021/06/25 00:10:57;;;;;;;;;;;;;;;15.00;100.00;96225.81;1044815;28;19908;-43
2021/06/25 00:11:27;;;;;;;;;;;;;;;14.97;100.00;96229.75;1044782;28;19916;-45
2021/06/25 00:11:58;;;;;;;;;;;;;;;14.98;100.00;96223.41;1044894;28;19908;-45
2021/06/25 00:12:28;;;;;;;;;;;;;;;14.98;100.00;96219.94;1044899;28;20293;-46
2021/06/25 00:12:58;;;;;;;;;;;;;;;14.95;100.00;96223.84;1045225;28;19912;-43
2021/06/25 00:13:29;;;;;;;;;;;;;;;14.93;100.00;96232.00;1045101;28;20277;-45
2021/06/25 00:13:59;;;;;;;;;;;;;;;14.81;100.00;96220.53;1045250;28;19920;-47
2021/06/25 00:14:29;;;;;;;;;;;;;;;14.85;100.00;96227.00;1044365;28;19913;-46
2021/06/25 00:15:00;;;;;;;;;;;;;;;14.88;100.00;96223.91;1044926;28;20346;-47
2021/06/25 00:15:30;;;;;;;;;;;;;;;14.89;100.00;96224.72;1040722;28;19909;-45
2021/06/25 00:16:01;;;;;;;;;;;;;;;14.89;100.00;96228.19;1040772;28;20277;-47
2021/06/25 00:16:31;;;;;;;;;;;;;;;14.87;100.00;96229.44;1044899;28;20404;-46
2021/06/25 00:17:02;;;;;;;;;;;;;;;14.90;100.00;96226.34;1044812;28;19995;-46
2021/06/25 00:17:32;;;;;;;;;;;;;;;14.88;100.00;96226.56;1045171;28;19992;-45
2021/06/25 00:18:03;;;;;;;;;;;;;;;14.90;100.00;96227.16;1045180;28;19915;-45
2021/06/25 00:18:33;;;;;;;;;;;;;;;14.88;100.00;96234.53;1045213;28;19962;-45
2021/06/25 00:19:04;;;;;;;;;;;;;;;14.90;100.00;96229.81;1045225;28;19912;-45
2021/06/25 00:19:34;;;;;;;;;;;;;;;14.78;100.00;96233.41;1045102;28;19912;-44
2021/06/25 00:20:05;;;;;;;;;;;;;;;14.80;100.00;96228.69;1044660;28;19932;-44
2021/06/25 00:20:35;;;;;;;;;;;;;;;14.85;100.00;96232.31;1045082;28;19972;-44
2021/06/25 00:21:06;;;;;;;;;;;;;;;14.86;100.00;96228.63;1044893;28;19915;-43
2021/06/25 00:21:36;;;;;;;;;;;;;;;14.87;100.00;96229.44;1044824;28;19908;-43
2021/06/25 00:22:06;;;;;;;;;;;;;;;14.82;100.00;96229.28;1045227;28;19908;-44
2021/06/25 00:22:37;;;;;;;;;;;;;;;14.84;100.00;96227.22;1045341;28;19913;-44
2021/06/25 00:23:07;;;;;;;;;;;;;;;14.84;100.00;96230.69;1045137;28;19917;-43
2021/06/25 00:23:37;;;;;;;;;;;;;;;14.84;100.00;96228.03;1045139;28;20006;-44
2021/06/25 00:24:08;;;;;;;;;;;;;;;14.81;100.00;96227.66;1045128;28;19931;-44
2021/06/25 00:24:38;;;;;;;;;;;;;;;14.79;100.00;96224.41;1045081;28;20320;-44
2021/06/25 00:25:08;;;;;;;;;;;;;;;14.78;100.00;96223.59;1045077;28;19909;-44
2021/06/25 00:25:39;;;;;;;;;;;;;;;14.77;100.00;96232.59;1044743;28;19912;-50
2021/06/25 00:26:09;;;;;;;;;;;;;;;14.77;100.00;96226.47;1045016;28;20373;-44
2021/06/25 00:26:39;;;;;;;;;;;;;;;14.74;100.00;96222.41;1044717;28;20345;-46
2021/06/25 00:27:10;;;;;;;;;;;;;;;14.65;100.00;96226.38;1040679;28;19905;-44
2021/06/25 00:27:40;;;;;;;;;;;;;;;14.67;100.00;96225.16;1044868;28;19936;-45
2021/06/25 00:28:10;;;;;;;;;;;;;;;14.64;100.00;96227.44;1044993;28;20354;-44
2021/06/25 00:28:41;;;;;;;;;;;;;;;14.63;100.00;96226.59;1045024;28;19908;-44
2021/06/25 00:29:11;;;;;;;;;;;;;;;14.65;100.00;96227.22;1045170;28;19900;-47
2021/06/25 00:29:41;;;;;;;;;;;;;;;14.66;100.00;96226.16;1045146;28;19905;-44
2021/06/25 00:30:15;;;;;;;;;;;;;;;14.65;100.00;96226.38;1045300;28;19901;-44
2021/06/25 00:30:45;;;;;;;;;;;;;;;14.66;100.00;96226.16;1044738;28;20015;-45
2021/06/25 00:31:15;;;;;;;;;;;;;;;14.66;100.00;96225.34;1044851;28;20442;-45
2021/06/25 00:31:46;;;;;;;;;;;;;;;14.61;100.00;96226.03;1044975;28;19901;-47
2021/06/25 00:32:16;;;;;;;;;;;;;;;14.61;100.00;96227.88;1044761;28;19955;-45
2021/06/25 00:32:46;;;;;;;;;;;;;;;14.61;100.00;96225.22;1045179;28;19982;-44
2021/06/25 00:33:17;;;;;;;;;;;;;;;14.59;100.00;96228.06;1045066;28;19944;-45
2021/06/25 00:33:47;;;;;;;;;;;;;;;14.60;100.00;96231.50;1044698;28;19901;-46
2021/06/25 00:34:17;;;;;;;;;;;;;;;14.57;100.00;96222.13;1044525;28;19948;-46
2021/06/25 00:34:48;;;;;;;;;;;;;;;14.56;100.00;96226.63;1040547;28;19913;-48
2021/06/25 00:35:18;;;;;;;;;;;;;;;14.60;100.00;96223.56;1040604;28;19909;-46
2021/06/25 00:35:48;;;;;;;;;;;;;;;14.62;100.00;96224.16;1044711;28;19908;-47
2021/06/25 00:36:19;;;;;;;;;;;;;;;14.62;100.00;96224.16;1044675;28;19951;-44
2021/06/25 00:36:49;;;;;;;;;;;;;;;14.61;100.00;96225.22;1044874;28;20007;-45
2021/06/25 00:37:19;;;;;;;;;;;;;;;14.62;100.00;96226.81;1045045;28;19954;-45
2021/06/25 00:37:50;;;;;;;;;;;;;;;14.62;100.00;96229.47;1045201;28;20022;-46
2021/06/25 00:38:20;;;;;;;;;;;;;;;14.58;100.00;96226.41;1045038;28;19909;-44
2021/06/25 00:38:50;;;;;;;;;;;;;;;14.60;100.00;96227.00;1045151;28;19908;-47
2021/06/25 00:39:20;;;;;;;;;;;;;;;14.60;100.00;96231.50;1045041;28;19909;-44
2021/06/25 00:39:52;;;;;;;;;;;;;;;14.60;100.00;96226.19;1045161;28;19944;-48
2021/06/25 00:40:22;;;;;;;;;;;;;;;14.57;100.00;96225.63;1045089;28;20387;-45
2021/06/25 00:40:53;;;;;;;;;;;;;;;14.58;100.00;96229.06;1045035;28;19915;-47
2021/06/25 00:41:23;;;;;;;;;;;;;;;14.58;100.00;96229.88;1045136;28;19909;-45
2021/06/25 00:41:53;;;;;;;;;;;;;;;14.54;100.00;96228.69;1045126;28;20385;-44
2021/06/25 00:42:23;;;;;;;;;;;;;;;14.54;100.00;96228.69;1044547;28;20365;-44
2021/06/25 00:42:54;;;;;;;;;;;;;;;14.55;100.00;96234.81;1044499;28;20035;-43
2021/06/25 00:43:24;;;;;;;;;;;;;;;14.55;100.00;96230.31;1044220;28;20289;-47
2021/06/25 00:43:54;;;;;;;;;;;;;;;14.49;100.00;96225.88;1044738;28;19909;-47
2021/06/25 00:44:25;;;;;;;;;;;;;;;14.51;100.00;96229.09;1044568;28;19908;-47
2021/06/25 00:44:55;;;;;;;;;;;;;;;14.52;100.00;96224.66;1044684;28;19999;-49
2021/06/25 00:45:25;;;;;;;;;;;;;;;14.50;100.00;96227.50;1044734;28;19913;-47
2021/06/25 00:45:56;;;;;;;;;;;;;;;14.50;100.00;96230.16;1044128;28;19948;-46
2021/06/25 00:46:26;;;;;;;;;;;;;;;14.52;100.00;96230.75;1045121;28;19959;-45
2021/06/25 00:46:56;;;;;;;;;;;;;;;14.47;100.00;96224.47;1044655;28;19947;-44
2021/06/25 00:47:27;;;;;;;;;;;;;;;14.43;100.00;96228.59;1044842;28;19908;-48
2021/06/25 00:47:57;;;;;;;;;;;;;;;14.42;100.00;96225.13;1036597;28;20389;-48
2021/06/25 00:48:27;;;;;;;;;;;;;;;14.44;100.00;96225.72;1036624;28;20412;-46
2021/06/25 00:48:58;;;;;;;;;;;;;;;14.46;100.00;96226.31;1040632;28;20409;-45
2021/06/25 00:49:28;;;;;;;;;;;;;;;14.41;100.00;96226.16;1040572;28;19913;-43
2021/06/25 00:49:58;;;;;;;;;;;;;;;14.44;100.00;96224.91;1045145;28;19963;-47
2021/06/25 00:50:29;;;;;;;;;;;;;;;14.44;100.00;96228.38;1045135;28;20269;-45
2021/06/25 00:51:00;;;;;;;;;;;;;;;14.51;100.00;96229.09;1044892;28;19958;-47
2021/06/25 00:51:31;;;;;;;;;;;;;;;14.57;100.00;96222.97;1044963;28;20418;-48
2021/06/25 00:52:01;;;;;;;;;;;;;;;14.61;100.00;96223.38;1044531;28;20003;-45
2021/06/25 00:52:31;;;;;;;;;;;;;;;14.61;100.00;96228.66;1044612;28;19912;-44
2021/06/25 00:53:01;;;;;;;;;;;;;;;14.63;100.00;96226.59;1044647;28;19908;-43
2021/06/25 00:53:32;;;;;;;;;;;;;;;14.62;100.00;96232.94;1044587;28;20018;-46
2021/06/25 00:54:03;;;;;;;;;;;;;;;14.57;100.00;96224.78;1040371;28;19908;-45
2021/06/25 00:54:33;;;;;;;;;;;;;;;14.56;100.00;96228.47;1044526;28;20140;-45
2021/06/25 00:55:03;;;;;;;;;;;;;;;14.52;100.00;96228.09;1040507;28;19909;-45
2021/06/25 00:55:41;;;;;;;;;;;;;;;14.55;100.00;96222.34;1040571;28;19940;-46
2021/06/25 00:56:12;;;;;;;;;;;;;;;14.52;100.00;96227.28;1044892;28;19909;-44
2021/06/25 00:56:42;;;;;;;;;;;;;;;14.47;100.00;96224.47;1044582;28;19908;-47
2021/06/25 00:57:13;;;;;;;;;;;;;;;14.44;100.00;96223.09;1045049;28;19909;-44
2021/06/25 00:57:44;;;;;;;;;;;;;;;14.44;100.00;96217.78;1045210;28;19913;-48
2021/06/25 00:58:18;;;;;;;;;;;;;;;14.44;100.00;96223.09;1044988;28;19912;-46
2021/06/25 00:58:49;;;;;;;;;;;;;;;14.38;100.00;96223.94;1044929;28;19909;-46
2021/06/25 00:59:19;;;;;;;;;;;;;;;14.39;100.00;96225.56;1044870;28;19908;-46
2021/06/25 00:59:50;;;;;;;;;;;;;;;14.39;100.00;96221.09;1044930;28;19909;-44
2021/06/25 01:00:20;;;;;;;;;;;;;;;14.38;100.00;96222.09;1044989;28;20388;-50
2021/06/25 01:00:51;;;;;;;;;;;;;;;14.39;100.00;96220.25;1044924;28;20008;-44
2021/06/25 01:01:21;;;;;;;;;;;;;;;14.36;100.00;96220.69;1045150;28;19909;-43
2021/06/25 01:01:51;;;;;;;;;;;;;;;14.37;100.00;96222.31;1044962;28;19908;-44
2021/06/25 01:02:21;;;;;;;;;;;;;;;14.38;100.00;96221.31;1045150;28;19951;-46
2021/06/25 01:02:52;;;;;;;;;;;;;;;14.41;100.00;96220.88;1045126;28;19915;-45
2021/06/25 01:03:22;;;;;;;;;;;;;;;14.37;100.00;96227.63;1044806;28;20317;-45
2021/06/25 01:03:52;;;;;;;;;;;;;;;14.34;100.00;96222.75;1044816;28;20297;-44
2021/06/25 01:04:23;;;;;;;;;;;;;;;14.42;100.00;96225.13;1044416;28;20353;-45
2021/06/25 01:04:53;;;;;;;;;;;;;;;14.36;100.00;96228.63;1040502;28;19950;-46
2021/06/25 01:05:23;;;;;;;;;;;;;;;14.29;100.00;96218.09;1040436;28;19909;-46
2021/06/25 01:05:54;;;;;;;;;;;;;;;14.27;100.00;96219.34;1040420;28;19909;-46
2021/06/25 01:06:24;;;;;;;;;;;;;;;14.23;100.00;96221.63;1044591;28;19909;-45
2021/06/25 01:06:54;;;;;;;;;;;;;;;14.22;100.00;96225.28;1044923;28;19916;-45
2021/06/25 01:07:25;;;;;;;;;;;;;;;14.21;100.00;96216.53;1044885;28;19912;-48
2021/06/25 01:07:56;;;;;;;;;;;;;;;14.16;100.00;96223.50;1044842;28;19962;-46
2021/06/25 01:08:26;;;;;;;;;;;;;;;14.14;100.00;96221.06;1044514;28;19951;-45
2021/06/25 01:08:57;;;;;;;;;;;;;;;14.15;100.00;96227.16;1036477;28;20384;-45
2021/06/25 01:09:27;;;;;;;;;;;;;;;14.22;100.00;96225.28;1036291;28;20366;-47
2021/06/25 01:09:58;;;;;;;;;;;;;;;14.31;100.00;96223.19;1036399;28;19933;-48
2021/06/25 01:10:28;;;;;;;;;;;;;;;14.29;100.00;96219.94;1036744;28;19916;-43
2021/06/25 01:10:58;;;;;;;;;;;;;;;14.28;100.00;96226.28;1040827;28;20253;-45
2021/06/25 01:11:29;;;;;;;;;;;;;;;14.23;100.00;96226.91;1036477;28;19963;-46
2021/06/25 01:12:02;;;;;;;;;;;;;;;14.18;100.00;96227.56;1036601;28;20452;-46
2021/06/25 01:12:32;;;;;;;;;;;;;;;14.13;100.00;96224.72;1036798;28;19909;-46
2021/06/25 01:13:02;;;;;;;;;;;;;;;14.12;100.00;96225.78;1040451;28;20279;-43
2021/06/25 01:13:33;;;;;;;;;;;;;;;14.11;100.00;96221.50;1040432;28;20436;-43
2021/06/25 01:14:03;;;;;;;;;;;;;;;14.08;100.00;96224.56;1040508;28;20003;-45
2021/06/25 01:14:33;;;;;;;;;;;;;;;14.04;100.00;96228.66;1044207;28;19913;-44
2021/06/25 01:15:04;;;;;;;;;;;;;;;14.03;100.00;96224.41;1045067;28;20438;-46
2021/06/25 01:15:34;;;;;;;;;;;;;;;14.00;100.00;96220.34;1045027;28;19909;-46
2021/06/25 01:16:05;;;;;;;;;;;;;;;14.03;100.00;96221.78;1044937;28;19951;-46
2021/06/25 01:16:36;;;;;;;;;;;;;;;14.00;100.00;96225.66;1044967;28;19966;-47
2021/06/25 01:17:07;;;;;;;;;;;;;;;14.01;100.00;96234.38;1044963;28;20023;-45
2021/06/25 01:17:38;;;;;;;;;;;;;;;14.02;100.00;96230.72;1045579;28;19920;-44
2021/06/25 01:18:09;;;;;;;;;;;;;;;14.07;100.00;96228.22;1045701;28;19955;-48
2021/06/25 01:18:39;;;;;;;;;;;;;;;14.06;100.00;96228.44;1045635;28;19931;-44
2021/06/25 01:19:13;;;;;;;;;;;;;;;14.02;100.00;96228.06;1045715;28;20341;-44
2021/06/25 01:19:44;;;;;;;;;;;;;;;14.01;100.00;96231.75;1045663;28;20368;-45
2021/06/25 01:20:27;;;;;;;;;;;;;;;13.98;100.00;96230.34;1045501;28;19908;-47
2021/06/25 01:20:58;;;;;;;;;;;;;;;13.96;100.00;96227.09;1045401;28;20021;-45
2021/06/25 01:21:29;;;;;;;;;;;;;;;14.05;100.00;96232.94;1045562;28;19909;-46
2021/06/25 01:21:59;;;;;;;;;;;;;;;14.01;100.00;96237.88;1045324;28;19909;-47
2021/06/25 01:22:34;;;;;;;;;;;;;;;14.00;100.00;96232.78;1045620;28;19908;-46
2021/06/25 01:23:04;;;;;;;;;;;;;;;14.01;100.00;96234.38;1045664;28;19908;-45
2021/06/25 01:23:38;;;;;;;;;;;;;;;13.99;100.00;96231.97;1045915;28;20357;-43
2021/06/25 01:24:09;;;;;;;;;;;;;;;13.99;100.00;96237.25;1045632;28;19908;-44
2021/06/25 01:24:40;;;;;;;;;;;;;;;14.00;100.00;96232.78;1045543;28;19974;-43
2021/06/25 01:25:11;;;;;;;;;;;;;;;14.03;100.00;96235.81;1045295;28;19909;-45
2021/06/25 01:25:41;;;;;;;;;;;;;;;14.13;100.00;96237.16;1045621;28;19943;-45
2021/06/25 01:26:12;;;;;;;;;;;;;;;14.09;100.00;96230.66;1045557;28;20293;-45
2021/06/25 01:26:42;;;;;;;;;;;;;;;14.08;100.00;96237.81;1041245;28;19901;-44
2021/06/25 01:27:13;;;;;;;;;;;;;;;14.07;100.00;96236.19;1045734;28;19907;-48
2021/06/25 01:27:47;;;;;;;;;;;;;;;14.04;100.00;96231.31;1045992;28;20008;-44
2021/06/25 01:28:18;;;;;;;;;;;;;;;13.98;100.00;96233.00;1045670;28;19907;-44
2021/06/25 01:28:48;;;;;;;;;;;;;;;14.00;100.00;96233.59;1045539;28;19900;-44
2021/06/25 01:29:18;;;;;;;;;;;;;;;14.10;100.00;96237.59;1045715;28;19909;-44
2021/06/25 01:29:49;;;;;;;;;;;;;;;14.08;100.00;96234.38;1045298;28;19904;-45
2021/06/25 01:30:20;;;;;;;;;;;;;;;14.05;100.00;96232.94;1045682;28;19907;-45
2021/06/25 01:30:51;;;;;;;;;;;;;;;14.05;100.00;96232.94;1045567;28;19901;-45
2021/06/25 01:31:21;;;;;;;;;;;;;;;14.03;100.00;96232.34;1045825;28;19908;-45
2021/06/25 01:31:51;;;;;;;;;;;;;;;14.05;100.00;96238.25;1046229;28;19907;-45
2021/06/25 01:32:22;;;;;;;;;;;;;;;14.12;100.00;96233.72;1045653;28;19905;-44
2021/06/25 01:32:52;;;;;;;;;;;;;;;14.08;100.00;96235.16;1045553;28;19912;-45
2021/06/25 01:33:22;;;;;;;;;;;;;;;14.08;100.00;96239.66;1045586;28;19991;-45
2021/06/25 01:33:53;;;;;;;;;;;;;;;14.05;100.00;96232.94;1045756;28;19901;-45
2021/06/25 01:34:23;;;;;;;;;;;;;;;14.06;100.00;96236.41;1045842;28;19908;-44
2021/06/25 01:34:53;;;;;;;;;;;;;;;14.04;100.00;96229.50;1045851;28;19999;-45
2021/06/25 01:35:24;;;;;;;;;;;;;;;14.04;100.00;96233.97;1045663;28;19901;-45
2021/06/25 01:35:55;;;;;;;;;;;;;;;14.01;100.00;96229.09;1045705;28;20341;-46
2021/06/25 01:36:26;;;;;;;;;;;;;;;14.07;100.00;96235.38;1045649;28;19991;-45
2021/06/25 01:36:56;;;;;;;;;;;;;;;14.04;100.00;96234.78;1045240;28;19940;-45
2021/06/25 01:37:27;;;;;;;;;;;;;;;14.05;100.00;96230.31;1045352;28;19900;-45
2021/06/25 01:37:57;;;;;;;;;;;;;;;14.05;100.00;96232.94;1041194;28;19901;-44
2021/06/25 01:38:28;;;;;;;;;;;;;;;14.03;100.00;96232.34;1041546;28;20314;-45
2021/06/25 01:38:59;;;;;;;;;;;;;;;14.05;100.00;96240.88;1045506;28;20354;-48
2021/06/25 01:39:29;;;;;;;;;;;;;;;14.14;100.00;96229.00;1045269;28;19908;-45
2021/06/25 01:39:59;;;;;;;;;;;;;;;14.11;100.00;96236.59;1045552;28;20354;-45
2021/06/25 01:40:30;;;;;;;;;;;;;;;14.11;100.00;96231.28;1045442;28;19908;-47
2021/06/25 01:41:00;;;;;;;;;;;;;;;14.11;100.00;96231.28;1045285;28;19936;-43
2021/06/25 01:41:35;;;;;;;;;;;;;;;14.10;100.00;96234.94;1045387;28;19978;-46
2021/06/25 01:42:06;;;;;;;;;;;;;;;14.09;100.00;96231.50;1045586;28;19951;-44
2021/06/25 01:42:37;;;;;;;;;;;;;;;14.09;100.00;96236.78;1045374;28;19946;-46
2021/06/25 01:43:08;;;;;;;;;;;;;;;14.10;100.00;96235.75;1045640;28;19905;-46
2021/06/25 01:43:38;;;;;;;;;;;;;;;14.04;100.00;96234.78;1045651;28;19966;-47
2021/06/25 01:44:08;;;;;;;;;;;;;;;14.06;100.00;96229.28;1045671;28;19901;-44
2021/06/25 01:44:39;;;;;;;;;;;;;;;14.02;100.00;96233.38;1045422;28;19901;-43
2021/06/25 01:45:10;;;;;;;;;;;;;;;14.00;100.00;96230.13;1045483;28;19907;-47
2021/06/25 01:45:40;;;;;;;;;;;;;;;13.98;100.00;96226.88;1045593;28;19900;-47
2021/06/25 01:46:12;;;;;;;;;;;;;;;13.96;100.00;96226.28;1041606;28;19975;-48
2021/06/25 01:46:42;;;;;;;;;;;;;;;13.95;100.00;96235.25;1041160;28;20074;-47
2021/06/25 01:47:13;;;;;;;;;;;;;;;14.00;100.00;96230.13;1037288;28;19963;-48
2021/06/25 01:47:44;;;;;;;;;;;;;;;13.96;100.00;96234.22;1033493;28;19949;-47
2021/06/25 01:48:14;;;;;;;;;;;;;;;13.96;100.00;96228.94;1037919;28;19906;-45
2021/06/25 01:48:44;;;;;;;;;;;;;;;14.01;100.00;96221.16;1037496;28;19902;-45
2021/06/25 01:49:15;;;;;;;;;;;;;;;14.02;100.00;96228.88;1041841;28;20327;-44
2021/06/25 01:49:45;;;;;;;;;;;;;;;14.04;100.00;96226.84;1041262;28;19924;-46
2021/06/25 01:50:19;;;;;;;;;;;;;;;14.00;100.00;96227.50;1037163;28;20330;-44
2021/06/25 01:50:49;;;;;;;;;;;;;;;14.01;100.00;96226.44;1041473;28;19932;-44
2021/06/25 01:51:20;;;;;;;;;;;;;;;14.04;100.00;96229.50;1041882;28;19949;-47
2021/06/25 01:51:50;;;;;;;;;;;;;;;14.06;100.00;96236.41;1041429;28;19901;-48
2021/06/25 01:52:20;;;;;;;;;;;;;;;13.98;100.00;96225.06;1045503;28;19901;-47
2021/06/25 01:52:51;;;;;;;;;;;;;;;14.04;100.00;96223.38;1045585;28;19938;-47
2021/06/25 01:53:22;;;;;;;;;;;;;;;14.03;100.00;96227.88;1045728;28;19901;-48
2021/06/25 01:53:52;;;;;;;;;;;;;;;14.06;100.00;96231.94;1045939;28;19901;-45
2021/06/25 01:54:22;;;;;;;;;;;;;;;14.06;100.00;96228.44;1045747;28;19986;-48
2021/06/25 01:54:53;;;;;;;;;;;;;;;14.07;100.00;96232.72;1045876;28;19905;-48
2021/06/25 01:55:23;;;;;;;;;;;;;;;14.11;100.00;96224.16;1045452;28;19905;-48
2021/06/25 01:55:54;;;;;;;;;;;;;;;14.14;100.00;96229.00;1045803;28;19992;-49
2021/06/25 01:56:24;;;;;;;;;;;;;;;14.17;100.00;96222.47;1041454;28;19940;-44
2021/06/25 01:56:55;;;;;;;;;;;;;;;14.14;100.00;96229.00;1041578;28;19952;-46
2021/06/25 01:57:25;;;;;;;;;;;;;;;14.19;100.00;96223.88;1045727;28;19966;-47
2021/06/25 01:57:55;;;;;;;;;;;;;;;14.23;100.00;96226.91;1045915;28;19924;-45
2021/06/25 01:58:27;;;;;;;;;;;;;;;14.15;100.00;96225.34;1045973;28;19905;-48
2021/06/25 01:58:57;;;;;;;;;;;;;;;14.13;100.00;96229.22;1045753;28;19908;-46
2021/06/25 01:59:28;;;;;;;;;;;;;;;14.11;100.00;96226.00;1045865;28;20396;-45
2021/06/25 01:59:58;;;;;;;;;;;;;;;14.08;100.00;96223.78;1045512;28;19935;-44
2021/06/25 02:00:29;;;;;;;;;;;;;;;14.06;100.00;96226.63;1041627;28;19905;-45
2021/06/25 02:01:14;;;;;;;;;;;;;;;14.04;100.00;96228.66;1037485;28;19912;-44
2021/06/25 02:01:44;;;;;;;;;;;;;;;14.01;100.00;96224.63;1037345;28;19912;-44
2021/06/25 02:02:14;;;;;;;;;;;;;;;14.01;100.00;96226.44;1039662;28;19952;-46
2021/06/25 02:02:45;;;;;;;;;;;;;;;13.99;100.00;96225.84;1043487;28;20354;-45
2021/06/25 02:03:15;;;;;;;;;;;;;;;13.98;100.00;96225.06;1041678;28;20435;-45
2021/06/25 02:03:46;;;;;;;;;;;;;;;14.00;100.00;96228.28;1045646;28;19905;-43
2021/06/25 02:04:16;;;;;;;;;;;;;;;13.98;100.00;96219.75;1045647;28;19914;-45
2021/06/25 02:04:46;;;;;;;;;;;;;;;13.97;100.00;96225.28;1045619;28;19927;-43
2021/06/25 02:05:17;;;;;;;;;;;;;;;14.11;100.00;96231.28;1045978;28;19905;-44
2021/06/25 02:05:47;;;;;;;;;;;;;;;14.01;100.00;96221.16;1046038;28;20300;-48
2021/06/25 02:06:17;;;;;;;;;;;;;;;14.00;100.00;96224.84;1045831;28;19912;-46
2021/06/25 02:06:48;;;;;;;;;;;;;;;14.01;100.00;96218.50;1046009;28;19912;-44
2021/06/25 02:07:18;;;;;;;;;;;;;;;13.98;100.00;96225.06;1045838;28;19904;-46
2021/06/25 02:07:48;;;;;;;;;;;;;;;13.97;100.00;96217.34;1045998;28;20360;-45
2021/06/25 02:08:19;;;;;;;;;;;;;;;13.98;100.00;96216.28;1045977;28;19923;-47
2021/06/25 02:08:49;;;;;;;;;;;;;;;13.96;100.00;96216.50;1045108;28;19912;-47
2021/06/25 02:09:20;;;;;;;;;;;;;;;13.96;100.00;96218.34;1045675;28;19912;-46
2021/06/25 02:09:51;;;;;;;;;;;;;;;13.99;100.00;96221.38;1045428;28;19905;-46
2021/06/25 02:10:21;;;;;;;;;;;;;;;14.01;100.00;96216.69;1045799;28;19981;-46
2021/06/25 02:10:51;;;;;;;;;;;;;;;14.02;100.00;96223.59;1045905;28;20234;-45
2021/06/25 02:11:23;;;;;;;;;;;;;;;13.99;100.00;96225.84;1045301;28;19935;-45
2021/06/25 02:11:53;;;;;;;;;;;;;;;13.98;100.00;96218.94;1045525;28;19990;-45
2021/06/25 02:12:24;;;;;;;;;;;;;;;13.98;100.00;96218.94;1045711;28;19994;-44
2021/06/25 02:12:54;;;;;;;;;;;;;;;13.98;100.00;96218.94;1041411;28;19933;-46
2021/06/25 02:13:25;;;;;;;;;;;;;;;13.96;100.00;96221.78;1045698;28;19944;-45
2021/06/25 02:13:55;;;;;;;;;;;;;;;13.97;100.00;96226.06;1045805;28;20362;-44
2021/06/25 02:14:25;;;;;;;;;;;;;;;13.98;100.00;96217.13;1045056;28;20008;-43
2021/06/25 02:14:56;;;;;;;;;;;;;;;13.97;100.00;96215.50;1045677;28;19938;-44
2021/06/25 02:15:26;;;;;;;;;;;;;;;13.96;100.00;96219.16;1046159;28;19952;-45
2021/06/25 02:15:56;;;;;;;;;;;;;;;13.96;100.00;96221.00;1046190;28;19912;-45
2021/06/25 02:16:27;;;;;;;;;;;;;;;13.96;100.00;96224.44;1046024;28;19940;-43
2021/06/25 02:16:57;;;;;;;;;;;;;;;13.97;100.00;96218.13;1046287;28;19996;-44
2021/06/25 02:17:28;;;;;;;;;;;;;;;13.95;100.00;96220.19;1046145;28;19927;-48
2021/06/25 02:17:58;;;;;;;;;;;;;;;13.96;100.00;96228.94;1045868;28;20003;-44
2021/06/25 02:18:28;;;;;;;;;;;;;;;13.96;100.00;96215.69;1045813;28;20021;-47
2021/06/25 02:19:00;;;;;;;;;;;;;;;13.93;100.00;96221.44;1045792;28;19960;-45
2021/06/25 02:19:30;;;;;;;;;;;;;;;13.94;100.00;96223.03;1045706;28;19901;-45
2021/06/25 02:20:01;;;;;;;;;;;;;;;13.99;100.00;96220.56;1046097;28;20281;-45
2021/06/25 02:20:31;;;;;;;;;;;;;;;14.01;100.00;96219.34;1045862;28;19904;-45
2021/06/25 02:21:01;;;;;;;;;;;;;;;14.11;100.00;96224.16;1045903;28;19936;-45
2021/06/25 02:21:32;;;;;;;;;;;;;;;14.08;100.00;96223.78;1045903;28;20399;-45
2021/06/25 02:22:02;;;;;;;;;;;;;;;14.04;100.00;96220.72;1045643;28;20422;-45
2021/06/25 02:22:33;;;;;;;;;;;;;;;14.03;100.00;96219.91;1045955;28;19912;-45
2021/06/25 02:23:04;;;;;;;;;;;;;;;14.03;100.00;96216.47;1045714;28;19962;-43
2021/06/25 02:23:34;;;;;;;;;;;;;;;14.06;100.00;96221.34;1041792;28;20253;-44
2021/06/25 02:24:05;;;;;;;;;;;;;;;14.03;100.00;96217.28;1041396;28;20362;-45
2021/06/25 02:24:35;;;;;;;;;;;;;;;14.06;100.00;96215.22;1037106;28;19909;-45
2021/06/25 02:25:07;;;;;;;;;;;;;;;14.06;100.00;96218.69;1037164;28;19905;-44
2021/06/25 02:25:37;;;;;;;;;;;;;;;14.06;100.00;96220.50;1037180;28;19951;-45
2021/06/25 02:26:07;;;;;;;;;;;;;;;14.04;100.00;96215.44;1037640;28;19920;-45
2021/06/25 02:26:38;;;;;;;;;;;;;;;14.06;100.00;96225.81;1041231;28;19913;-44
2021/06/25 02:27:08;;;;;;;;;;;;;;;14.03;100.00;96219.91;1041521;28;19912;-43
2021/06/25 02:27:38;;;;;;;;;;;;;;;14.05;100.00;96217.06;1045830;28;20329;-47
2021/06/25 02:28:09;;;;;;;;;;;;;;;14.04;100.00;96216.25;1045636;28;19999;-47
2021/06/25 02:28:40;;;;;;;;;;;;;;;14.02;100.00;96214.84;1045380;28;19916;-45
2021/06/25 02:29:11;;;;;;;;;;;;;;;14.02;100.00;96213.00;1045078;28;19915;-45
2021/06/25 02:29:41;;;;;;;;;;;;;;;14.01;100.00;96207.91;1045343;28;19959;-44
2021/06/25 02:30:15;;;;;;;;;;;;;;;14.14;100.00;96209.69;1045581;28;19913;-44
2021/06/25 02:30:45;;;;;;;;;;;;;;;14.12;100.00;96212.53;1045453;28;19908;-46
2021/06/25 02:31:17;;;;;;;;;;;;;;;14.12;100.00;96215.19;1045432;28;19908;-44
2021/06/25 02:31:47;;;;;;;;;;;;;;;14.10;100.00;96211.13;1045473;28;20308;-44
2021/06/25 02:32:17;;;;;;;;;;;;;;;14.11;100.00;96210.09;1041442;28;19909;-44
2021/06/25 02:32:48;;;;;;;;;;;;;;;14.08;100.00;96213.19;1041108;28;19909;-44
2021/06/25 02:33:18;;;;;;;;;;;;;;;14.10;100.00;96206.63;1041505;28;19909;-48
2021/06/25 02:33:48;;;;;;;;;;;;;;;14.02;100.00;96213.00;1041131;28;19948;-46
2021/06/25 02:34:19;;;;;;;;;;;;;;;14.13;100.00;96206.19;1041216;28;19909;-45
2021/06/25 02:34:49;;;;;;;;;;;;;;;14.09;100.00;96218.25;1041359;28;20313;-45
2021/06/25 02:35:19;;;;;;;;;;;;;;;14.05;100.00;96206.47;1045348;28;19901;-46
2021/06/25 02:35:50;;;;;;;;;;;;;;;14.07;100.00;96215.00;1045563;28;19900;-46
2021/06/25 02:36:20;;;;;;;;;;;;;;;14.26;100.00;96205.28;1045737;28;19908;-46
2021/06/25 02:36:51;;;;;;;;;;;;;;;14.29;100.00;96202.22;1045633;28;20012;-45
2021/06/25 02:37:22;;;;;;;;;;;;;;;14.27;100.00;96211.41;1045780;28;20345;-49